sensor_id;sensor_type;location;lat;lon;timestamp;pressure;altitude;pressure_sealevel;temperature;humidity
18755;BME280;35061;47.664;9.166;2023-01-04T00:01:30;102973.79;;;6.41;100.00
18755;BME280;35061;47.664;9.166;2023-01-04T00:03:58;102966.89;;;6.35;100.00
18755;BME280;35061;47.664;9.166;2023-01-04T00:06:26;102973.43;;;6.32;100.00
18755;BME280;35061;47.664;9.166;2023-01-04T00:08:54;102972.58;;;6.31;100.00
18755;BME280;35061;47.664;9.166;2023-01-04T00:11:23;102965.71;;;6.28;100.00
18755;BME280;35061;47.664;9.166;2023-01-04T00:13:54;102979.94;;;6.25;100.00
18755;BME280;35061;47.664;9.166;2023-01-04T00:16:23;102973.46;;;6.17;100.00
18755;BME280;35061;47.664;9.166;2023-01-04T00:18:53;102969.41;;;6.11;100.00
18755;BME280;35061;47.664;9.166;2023-01-04T00:21:23;102981.21;;;6.06;100.00
18755;BME280;35061;47.664;9.166;2023-01-04T00:23:53;102976.70;;;5.97;100.00
18755;BME280;35061;47.664;9.166;2023-01-04T00:26:27;102974.70;;;5.91;100.00
18755;BME280;35061;47.664;9.166;2023-01-04T00:28:56;102975.91;;;5.86;100.00
18755;BME280;35061;47.664;9.166;2023-01-04T00:31:25;102976.30;;;5.77;100.00
18755;BME280;35061;47.664;9.166;2023-01-04T00:33:55;102974.28;;;5.74;100.00
18755;BME280;35061;47.664;9.166;2023-01-04T00:36:23;102973.07;;;5.71;100.00
18755;BME280;35061;47.664;9.166;2023-01-04T00:38:52;102971.86;;;5.65;100.00
18755;BME280;35061;47.664;9.166;2023-01-04T00:44:28;102970.62;;;5.59;100.00
18755;BME280;35061;47.664;9.166;2023-01-04T00:47:00;102967.41;;;5.61;100.00
18755;BME280;35061;47.664;9.166;2023-01-04T00:49:29;102957.63;;;5.58;100.00
18755;BME280;35061;47.664;9.166;2023-01-04T00:51:57;102952.37;;;5.60;100.00
18755;BME280;35061;47.664;9.166;2023-01-04T00:54:25;102950.73;;;5.63;100.00
18755;BME280;35061;47.664;9.166;2023-01-04T00:56:53;102954.79;;;5.62;100.00
18755;BME280;35061;47.664;9.166;2023-01-04T00:59:21;102946.29;;;5.65;100.00
18755;BME280;35061;47.664;9.166;2023-01-04T01:01:49;102943.45;;;5.65;100.00
18755;BME280;35061;47.664;9.166;2023-01-04T01:04:20;102962.90;;;5.67;100.00
18755;BME280;35061;47.664;9.166;2023-01-04T01:06:49;102955.22;;;5.67;100.00
18755;BME280;35061;47.664;9.166;2023-01-04T01:09:18;102965.77;;;5.63;100.00
18755;BME280;35061;47.664;9.166;2023-01-04T01:11:50;102968.63;;;5.63;100.00
18755;BME280;35061;47.664;9.166;2023-01-04T01:14:21;102973.89;;;5.61;100.00
18755;BME280;35061;47.664;9.166;2023-01-04T01:16:50;102972.25;;;5.64;100.00
18755;BME280;35061;47.664;9.166;2023-01-04T01:19:27;102976.73;;;5.65;100.00
18755;BME280;35061;47.664;9.166;2023-01-04T01:21:56;102977.16;;;5.59;100.00
18755;BME280;35061;47.664;9.166;2023-01-04T01:24:24;102981.60;;;5.61;100.00
18755;BME280;35061;47.664;9.166;2023-01-04T01:26:53;102979.15;;;5.63;100.00
18755;BME280;35061;47.664;9.166;2023-01-04T01:29:21;102973.49;;;5.63;100.00
18755;BME280;35061;47.664;9.166;2023-01-04T01:31:49;102962.90;;;5.67;100.00
18755;BME280;35061;47.664;9.166;2023-01-04T01:34:17;102974.28;;;5.70;100.00
18755;BME280;35061;47.664;9.166;2023-01-04T01:36:44;102968.20;;;5.76;100.00
18755;BME280;35061;47.664;9.166;2023-01-04T01:39:12;102956.82;;;5.83;100.00
18755;BME280;35061;47.664;9.166;2023-01-04T01:41:40;102958.42;;;5.87;100.00
18755;BME280;35061;47.664;9.166;2023-01-04T01:46:47;102971.01;;;5.97;100.00
18755;BME280;35061;47.664;9.166;2023-01-04T01:49:34;102973.85;;;6.05;100.00
18755;BME280;35061;47.664;9.166;2023-01-04T01:52:06;102983.63;;;6.11;100.00
18755;BME280;35061;47.664;9.166;2023-01-04T01:54:39;102981.57;;;6.19;100.00
18755;BME280;35061;47.664;9.166;2023-01-04T01:57:10;102983.17;;;6.23;100.00
18755;BME280;35061;47.664;9.166;2023-01-04T01:59:41;102983.99;;;6.27;100.00
18755;BME280;35061;47.664;9.166;2023-01-04T02:02:10;102990.11;;;6.30;100.00
18755;BME280;35061;47.664;9.166;2023-01-04T02:04:45;102992.10;;;6.29;100.00
18755;BME280;35061;47.664;9.166;2023-01-04T02:07:18;102986.41;;;6.29;100.00
18755;BME280;35061;47.664;9.166;2023-01-04T02:09:48;102994.55;;;6.31;100.00
18755;BME280;35061;47.664;9.166;2023-01-04T02:12:16;102984.41;;;6.30;100.00
18755;BME280;35061;47.664;9.166;2023-01-04T02:14:46;102983.17;;;6.31;100.00
18755;BME280;35061;47.664;9.166;2023-01-04T02:17:43;102977.09;;;6.32;100.00
18755;BME280;35061;47.664;9.166;2023-01-04T02:20:31;102976.66;;;6.34;100.00
18755;BME280;35061;47.664;9.166;2023-01-04T02:23:39;102972.97;;;6.37;100.00
18755;BME280;35061;47.664;9.166;2023-01-04T02:29:10;102964.44;;;6.37;100.00
18755;BME280;35061;47.664;9.166;2023-01-04T02:31:50;102958.75;;;6.37;100.00
18755;BME280;35061;47.664;9.166;2023-01-04T02:43:02;102969.34;;;6.40;100.00
18755;BME280;35061;47.664;9.166;2023-01-04T02:45:57;102964.86;;;6.39;100.00
18755;BME280;35061;47.664;9.166;2023-01-04T02:48:38;102967.28;;;6.40;100.00
18755;BME280;35061;47.664;9.166;2023-01-04T02:51:35;102967.28;;;6.40;100.00
18755;BME280;35061;47.664;9.166;2023-01-04T02:54:10;102973.40;;;6.39;100.00
18755;BME280;35061;47.664;9.166;2023-01-04T03:08:48;102966.46;;;6.44;100.00
18755;BME280;35061;47.664;9.166;2023-01-04T03:11:17;102959.14;;;6.46;100.00
18755;BME280;35061;47.664;9.166;2023-01-04T03:14:13;102956.72;;;6.41;100.00
18755;BME280;35061;47.664;9.166;2023-01-04T03:17:01;102972.97;;;6.44;100.00
18755;BME280;35061;47.664;9.166;2023-01-04T03:19:32;102962.84;;;6.36;100.00
18755;BME280;35061;47.664;9.166;2023-01-04T03:22:37;102966.10;;;6.34;100.00
18755;BME280;35061;47.664;9.166;2023-01-04T03:25:31;102957.11;;;6.36;100.00
18755;BME280;35061;47.664;9.166;2023-01-04T03:28:20;102953.48;;;6.39;100.00
18755;BME280;35061;47.664;9.166;2023-01-04T03:31:20;102960.80;;;6.40;100.00
18755;BME280;35061;47.664;9.166;2023-01-04T03:34:07;102948.19;;;6.41;100.00
18755;BME280;35061;47.664;9.166;2023-01-04T03:36:59;102933.50;;;6.42;100.00
18755;BME280;35061;47.664;9.166;2023-01-04T03:39:46;102941.25;;;6.46;100.00
18755;BME280;35061;47.664;9.166;2023-01-04T03:42:47;102935.14;;;6.47;100.00
18755;BME280;35061;47.664;9.166;2023-01-04T03:45:50;102926.99;;;6.49;100.00
18755;BME280;35061;47.664;9.166;2023-01-04T03:48:45;102925.36;;;6.52;100.00
18755;BME280;35061;47.664;9.166;2023-01-04T03:51:20;102924.58;;;6.48;100.00
18755;BME280;35061;47.664;9.166;2023-01-04T03:54:13;102909.92;;;6.46;100.00
18755;BME280;35061;47.664;9.166;2023-01-04T03:56:45;102889.62;;;6.40;100.00
18755;BME280;35061;47.664;9.166;2023-01-04T03:59:14;102900.18;;;6.43;100.00
18755;BME280;35061;47.664;9.166;2023-01-04T04:01:43;102898.58;;;6.42;100.00
18755;BME280;35061;47.664;9.166;2023-01-04T04:04:11;102896.95;;;6.37;100.00
18755;BME280;35061;47.664;9.166;2023-01-04T04:06:58;102898.19;;;6.36;100.00
18755;BME280;35061;47.664;9.166;2023-01-04T04:09:44;102894.95;;;6.31;100.00
18755;BME280;35061;47.664;9.166;2023-01-04T04:12:12;102902.66;;;6.30;100.00
18755;BME280;35061;47.664;9.166;2023-01-04T04:14:39;102905.97;;;6.25;100.00
18755;BME280;35061;47.664;9.166;2023-01-04T04:17:07;102904.34;;;6.20;100.00
18755;BME280;35061;47.664;9.166;2023-01-04T04:19:35;102900.28;;;6.14;100.00
18755;BME280;35061;47.664;9.166;2023-01-04T04:22:03;102899.49;;;6.13;100.00
18755;BME280;35061;47.664;9.166;2023-01-04T04:24:30;102896.26;;;6.11;100.00
18755;BME280;35061;47.664;9.166;2023-01-04T04:26:58;102895.44;;;6.11;100.00
18755;BME280;35061;47.664;9.166;2023-01-04T04:29:26;102888.51;;;6.08;100.00
18755;BME280;35061;47.664;9.166;2023-01-04T04:31:54;102889.36;;;6.05;100.00
18755;BME280;35061;47.664;9.166;2023-01-04T04:34:21;102886.52;;;6.02;100.00
18755;BME280;35061;47.664;9.166;2023-01-04T04:36:49;102899.10;;;6.00;100.00
18755;BME280;35061;47.664;9.166;2023-01-04T04:39:17;102900.70;;;5.98;100.00
18755;BME280;35061;47.664;9.166;2023-01-04T04:41:44;102893.84;;;5.95;100.00
18755;BME280;35061;47.664;9.166;2023-01-04T04:44:15;102893.02;;;5.95;100.00
18755;BME280;35061;47.664;9.166;2023-01-04T04:46:44;102900.31;;;5.92;100.00
18755;BME280;35061;47.664;9.166;2023-01-04T04:49:12;102902.38;;;5.92;100.00
18755;BME280;35061;47.664;9.166;2023-01-04T04:51:40;102890.99;;;5.88;100.00
18755;BME280;35061;47.664;9.166;2023-01-04T04:54:16;102899.92;;;5.86;100.00
18755;BME280;35061;47.664;9.166;2023-01-04T04:56:45;102901.16;;;5.85;100.00
18755;BME280;35061;47.664;9.166;2023-01-04T04:59:13;102900.34;;;5.81;100.00
18755;BME280;35061;47.664;9.166;2023-01-04T05:01:41;102904.40;;;5.84;100.00
18755;BME280;35061;47.664;9.166;2023-01-04T05:04:09;102891.38;;;5.83;100.00
18755;BME280;35061;47.664;9.166;2023-01-04T05:06:43;102899.52;;;5.81;100.00
18755;BME280;35061;47.664;9.166;2023-01-04T05:09:12;102900.38;;;5.78;100.00
18755;BME280;35061;47.664;9.166;2023-01-04T05:11:41;102897.11;;;5.76;100.00
18755;BME280;35061;47.664;9.166;2023-01-04T05:14:27;102898.35;;;5.71;100.00
18755;BME280;35061;47.664;9.166;2023-01-04T05:16:55;102900.80;;;5.69;100.00
18755;BME280;35061;47.664;9.166;2023-01-04T05:19:23;102917.41;;;5.70;100.00
18755;BME280;35061;47.664;9.166;2023-01-04T05:21:50;102902.80;;;5.68;100.00
18755;BME280;35061;47.664;9.166;2023-01-04T05:24:18;102902.02;;;5.64;100.00
18755;BME280;35061;47.664;9.166;2023-01-04T05:26:46;102901.59;;;5.62;100.00
18755;BME280;35061;47.664;9.166;2023-01-04T05:29:13;102908.09;;;5.59;100.00
18755;BME280;35061;47.664;9.166;2023-01-04T05:32:01;102897.96;;;5.58;100.00
18755;BME280;35061;47.664;9.166;2023-01-04T05:34:29;102902.41;;;5.63;100.00
18755;BME280;35061;47.664;9.166;2023-01-04T05:36:56;102897.96;;;5.65;100.00
18755;BME280;35061;47.664;9.166;2023-01-04T05:39:24;102883.34;;;5.63;100.00
18755;BME280;35061;47.664;9.166;2023-01-04T05:41:52;102897.11;;;5.65;100.00
18755;BME280;35061;47.664;9.166;2023-01-04T05:44:38;102893.87;;;5.66;100.00
18755;BME280;35061;47.664;9.166;2023-01-04T05:47:06;102889.00;;;5.67;100.00
18755;BME280;35061;47.664;9.166;2023-01-04T05:49:40;102888.60;;;5.65;100.00
18755;BME280;35061;47.664;9.166;2023-01-04T05:52:08;102889.03;;;5.63;100.00
18755;BME280;35061;47.664;9.166;2023-01-04T05:54:35;102898.74;;;5.62;100.00
18755;BME280;35061;47.664;9.166;2023-01-04T05:57:03;102906.46;;;5.58;100.00
18755;BME280;35061;47.664;9.166;2023-01-04T05:59:31;102904.46;;;5.58;100.00
18755;BME280;35061;47.664;9.166;2023-01-04T06:02:13;102904.86;;;5.57;100.00
18755;BME280;35061;47.664;9.166;2023-01-04T06:04:41;102900.77;;;5.51;100.00
18755;BME280;35061;47.664;9.166;2023-01-04T06:07:08;102895.54;;;5.49;100.00
18755;BME280;35061;47.664;9.166;2023-01-04T06:09:36;102904.46;;;5.51;100.00
18755;BME280;35061;47.664;9.166;2023-01-04T06:12:04;102901.62;;;5.51;100.00
18755;BME280;35061;47.664;9.166;2023-01-04T06:14:32;102905.25;;;5.52;100.00
18755;BME280;35061;47.664;9.166;2023-01-04T06:16:59;102905.67;;;5.50;100.00
18755;BME280;35061;47.664;9.166;2023-01-04T06:19:27;102911.76;;;5.49;100.00
18755;BME280;35061;47.664;9.166;2023-01-04T06:21:55;102893.91;;;5.41;100.00
18755;BME280;35061;47.664;9.166;2023-01-04T06:24:23;102897.53;;;5.41;100.00
18755;BME280;35061;47.664;9.166;2023-01-04T06:26:51;102895.54;;;5.42;100.00
18755;BME280;35061;47.664;9.166;2023-01-04T06:29:19;102902.02;;;5.46;100.00
18755;BME280;35061;47.664;9.166;2023-01-04T06:31:46;102903.65;;;5.47;100.00
18755;BME280;35061;47.664;9.166;2023-01-04T06:34:14;102907.70;;;5.50;100.00
18755;BME280;35061;47.664;9.166;2023-01-04T06:36:42;102900.38;;;5.49;100.00
18755;BME280;35061;47.664;9.166;2023-01-04T06:39:10;102897.96;;;5.54;100.00
18755;BME280;35061;47.664;9.166;2023-01-04T06:41:37;102899.95;;;5.57;100.00
18755;BME280;35061;47.664;9.166;2023-01-04T06:44:05;102907.70;;;5.61;100.00
18755;BME280;35061;47.664;9.166;2023-01-04T06:46:33;102910.55;;;5.61;100.00
18755;BME280;35061;47.664;9.166;2023-01-04T06:49:01;102915.38;;;5.60;100.00
18755;BME280;35061;47.664;9.166;2023-01-04T06:51:29;102913.39;;;5.64;100.00
18755;BME280;35061;47.664;9.166;2023-01-04T06:53:56;102914.57;;;5.67;100.00
18755;BME280;35061;47.664;9.166;2023-01-04T06:56:24;102907.67;;;5.68;100.00
18755;BME280;35061;47.664;9.166;2023-01-04T06:58:52;102900.38;;;5.70;100.00
18755;BME280;35061;47.664;9.166;2023-01-04T07:01:19;102906.03;;;5.67;100.00
18755;BME280;35061;47.664;9.166;2023-01-04T07:03:47;102908.09;;;5.66;100.00
18755;BME280;35061;47.664;9.166;2023-01-04T07:06:15;102902.80;;;5.65;100.00
18755;BME280;35061;47.664;9.166;2023-01-04T07:08:43;102905.25;;;5.63;100.00
18755;BME280;35061;47.664;9.166;2023-01-04T07:11:10;102904.43;;;5.62;100.00
18755;BME280;35061;47.664;9.166;2023-01-04T07:13:38;102907.70;;;5.64;100.00
18755;BME280;35061;47.664;9.166;2023-01-04T07:16:06;102908.48;;;5.68;100.00
18755;BME280;35061;47.664;9.166;2023-01-04T07:18:33;102900.77;;;5.72;100.00
18755;BME280;35061;47.664;9.166;2023-01-04T07:21:01;102900.38;;;5.74;100.00
18755;BME280;35061;47.664;9.166;2023-01-04T07:23:29;102908.88;;;5.78;100.00
18755;BME280;35061;47.664;9.166;2023-01-04T07:26:00;102908.48;;;5.79;100.00
18755;BME280;35061;47.664;9.166;2023-01-04T07:28:28;102912.54;;;5.82;100.00
18755;BME280;35061;47.664;9.166;2023-01-04T07:31:14;102908.45;;;5.86;100.00
18755;BME280;35061;47.664;9.166;2023-01-04T07:33:42;102899.10;;;5.93;100.00
18755;BME280;35061;47.664;9.166;2023-01-04T07:36:10;102897.47;;;5.99;100.00
18755;BME280;35061;47.664;9.166;2023-01-04T07:38:38;102897.08;;;5.97;100.00
18755;BME280;35061;47.664;9.166;2023-01-04T07:41:05;102896.26;;;5.97;100.00
18755;BME280;35061;47.664;9.166;2023-01-04T07:43:33;102907.24;;;6.02;100.00
18755;BME280;35061;47.664;9.166;2023-01-04T07:46:01;102907.63;;;6.04;100.00
18755;BME280;35061;47.664;9.166;2023-01-04T07:48:29;102906.03;;;6.07;100.00
18755;BME280;35061;47.664;9.166;2023-01-04T07:50:56;102898.68;;;6.13;100.00
18755;BME280;35061;47.664;9.166;2023-01-04T07:53:24;102899.04;;;6.26;100.00
18755;BME280;35061;47.664;9.166;2023-01-04T07:55:58;102908.75;;;6.36;100.00
18755;BME280;35061;47.664;9.166;2023-01-04T07:58:31;102915.62;;;6.46;100.00
18755;BME280;35061;47.664;9.166;2023-01-04T08:01:19;102922.13;;;6.50;100.00
18755;BME280;35061;47.664;9.166;2023-01-04T08:03:47;102915.59;;;6.56;100.00
18755;BME280;35061;47.664;9.166;2023-01-04T08:06:16;102906.59;;;6.62;100.00
18755;BME280;35061;47.664;9.166;2023-01-04T08:08:43;102918.00;;;6.62;100.00
18755;BME280;35061;47.664;9.166;2023-01-04T08:11:14;102911.46;;;6.68;100.00
18755;BME280;35061;47.664;9.166;2023-01-04T08:13:42;102907.34;;;6.77;100.00
18755;BME280;35061;47.664;9.166;2023-01-04T08:16:39;102915.02;;;6.83;100.00
18755;BME280;35061;47.664;9.166;2023-01-04T08:19:09;102905.25;;;6.84;100.00
18755;BME280;35061;47.664;9.166;2023-01-04T08:21:38;102908.06;;;6.92;100.00
18755;BME280;35061;47.664;9.166;2023-01-04T08:24:06;102909.66;;;6.96;100.00
18755;BME280;35061;47.664;9.166;2023-01-04T08:26:33;102909.20;;;7.02;100.00
18755;BME280;35061;47.664;9.166;2023-01-04T08:29:01;102915.32;;;7.00;98.31
18755;BME280;35061;47.664;9.166;2023-01-04T08:31:30;102912.48;;;7.00;97.41
18755;BME280;35061;47.664;9.166;2023-01-04T08:34:02;102915.32;;;7.00;97.60
18755;BME280;35061;47.664;9.166;2023-01-04T08:36:32;102916.11;;;7.08;98.38
18755;BME280;35061;47.664;9.166;2023-01-04T08:39:03;102911.98;;;7.12;98.68
18755;BME280;35061;47.664;9.166;2023-01-04T08:41:33;102907.90;;;7.17;97.67
18755;BME280;35061;47.664;9.166;2023-01-04T08:44:37;102907.08;;;7.17;95.51
18755;BME280;35061;47.664;9.166;2023-01-04T08:47:04;102916.83;;;7.19;96.75
18755;BME280;35061;47.664;9.166;2023-01-04T08:49:32;102905.80;;;7.21;95.18
18755;BME280;35061;47.664;9.166;2023-01-04T08:52:00;102903.74;;;7.22;95.03
18755;BME280;35061;47.664;9.166;2023-01-04T08:54:28;102901.33;;;7.24;95.04
18755;BME280;35061;47.664;9.166;2023-01-04T08:56:56;102902.93;;;7.25;94.70
18755;BME280;35061;47.664;9.166;2023-01-04T08:59:23;102907.80;;;7.28;94.44
18755;BME280;35061;47.664;9.166;2023-01-04T09:01:51;102890.66;;;7.32;94.64
18755;BME280;35061;47.664;9.166;2023-01-04T09:04:23;102902.86;;;7.32;94.03
18755;BME280;35061;47.664;9.166;2023-01-04T09:06:51;102897.99;;;7.33;93.29
18755;BME280;35061;47.664;9.166;2023-01-04T09:09:19;102902.86;;;7.32;93.20
18755;BME280;35061;47.664;9.166;2023-01-04T09:11:47;102906.13;;;7.34;93.27
18755;BME280;35061;47.664;9.166;2023-01-04T09:14:14;102901.59;;;7.40;94.20
18755;BME280;35061;47.664;9.166;2023-01-04T09:16:42;102892.20;;;7.44;94.25
18755;BME280;35061;47.664;9.166;2023-01-04T09:19:10;102895.02;;;7.47;93.86
18755;BME280;35061;47.664;9.166;2023-01-04T09:21:46;102892.56;;;7.49;92.57
18755;BME280;35061;47.664;9.166;2023-01-04T09:24:14;102892.98;;;7.44;91.64
18755;BME280;35061;47.664;9.166;2023-01-04T09:26:42;102893.77;;;7.48;92.65
18755;BME280;35061;47.664;9.166;2023-01-04T09:29:10;102892.59;;;7.46;92.00
18755;BME280;35061;47.664;9.166;2023-01-04T09:31:38;102892.13;;;7.47;92.88
18755;BME280;35061;47.664;9.166;2023-01-04T09:34:05;102888.05;;;7.48;92.41
18755;BME280;35061;47.664;9.166;2023-01-04T09:36:46;102896.20;;;7.50;91.75
18755;BME280;35061;47.664;9.166;2023-01-04T09:39:15;102894.59;;;7.49;91.63
18755;BME280;35061;47.664;9.166;2023-01-04T09:44:45;102900.28;;;7.49;90.39
18755;BME280;35061;47.664;9.166;2023-01-04T09:50:17;102902.66;;;7.54;91.70
18755;BME280;35061;47.664;9.166;2023-01-04T09:56:22;102895.24;;;7.67;92.23
18755;BME280;35061;47.664;9.166;2023-01-04T09:58:52;102894.39;;;7.71;91.24
18755;BME280;35061;47.664;9.166;2023-01-04T10:01:23;102886.22;;;7.73;91.73
18755;BME280;35061;47.664;9.166;2023-01-04T10:03:59;102881.34;;;7.70;89.94
18755;BME280;35061;47.664;9.166;2023-01-04T10:06:28;102873.66;;;7.66;89.92
18755;BME280;35061;47.664;9.166;2023-01-04T10:09:01;102869.97;;;7.70;90.58
18755;BME280;35061;47.664;9.166;2023-01-04T10:17:22;102869.02;;;7.80;89.95
18755;BME280;35061;47.664;9.166;2023-01-04T10:25:57;102853.42;;;7.92;88.54
18755;BME280;35061;47.664;9.166;2023-01-04T10:29:01;102852.21;;;7.89;88.35
18755;BME280;35061;47.664;9.166;2023-01-04T10:31:40;102850.15;;;7.90;88.12
18755;BME280;35061;47.664;9.166;2023-01-04T10:36:49;102824.91;;;7.92;88.22
18755;BME280;35061;47.664;9.166;2023-01-04T10:39:21;102832.98;;;7.97;88.81
18755;BME280;35061;47.664;9.166;2023-01-04T10:42:31;102829.65;;;8.02;88.49
18755;BME280;35061;47.664;9.166;2023-01-04T10:45:27;102827.98;;;8.05;88.13
18755;BME280;35061;47.664;9.166;2023-01-04T10:48:07;102816.89;;;8.10;88.61
18755;BME280;35061;47.664;9.166;2023-01-04T10:50:56;102811.53;;;8.16;88.82
18755;BME280;35061;47.664;9.166;2023-01-04T10:56:36;102801.62;;;8.24;88.99
18755;BME280;35061;47.664;9.166;2023-01-04T11:02:16;102811.34;;;8.31;88.26
18755;BME280;35061;47.664;9.166;2023-01-04T11:07:27;102797.50;;;8.29;86.99
18755;BME280;35061;47.664;9.166;2023-01-04T11:10:03;102801.59;;;8.28;87.78
18755;BME280;35061;47.664;9.166;2023-01-04T11:12:33;102802.84;;;8.27;86.86
18755;BME280;35061;47.664;9.166;2023-01-04T11:15:02;102802.44;;;8.25;87.55
18755;BME280;35061;47.664;9.166;2023-01-04T11:17:31;102798.35;;;8.26;87.60
18755;BME280;35061;47.664;9.166;2023-01-04T11:19:59;102795.05;;;8.28;88.57
18755;BME280;35061;47.664;9.166;2023-01-04T11:22:34;102794.62;;;8.29;88.59
18755;BME280;35061;47.664;9.166;2023-01-04T11:25:10;102793.84;;;8.29;87.90
18755;BME280;35061;47.664;9.166;2023-01-04T11:28:15;102797.86;;;8.31;88.82
18755;BME280;35061;47.664;9.166;2023-01-04T11:31:13;102807.67;;;8.30;88.09
18755;BME280;35061;47.664;9.166;2023-01-04T11:33:57;102800.70;;;8.31;88.53
18755;BME280;35061;47.664;9.166;2023-01-04T11:36:34;102780.37;;;8.29;87.85
18755;BME280;35061;47.664;9.166;2023-01-04T11:39:26;102777.09;;;8.31;87.42
18755;BME280;35061;47.664;9.166;2023-01-04T11:42:03;102774.52;;;8.40;88.51
18755;BME280;35061;47.664;9.166;2023-01-04T11:44:33;102772.78;;;8.46;88.11
18755;BME280;35061;47.664;9.166;2023-01-04T11:47:14;102763.33;;;8.49;87.97
18755;BME280;35061;47.664;9.166;2023-01-04T11:49:44;102761.27;;;8.54;87.95
18755;BME280;35061;47.664;9.166;2023-01-04T11:52:35;102757.12;;;8.58;88.15
18755;BME280;35061;47.664;9.166;2023-01-04T11:55:22;102756.95;;;8.69;87.66
18755;BME280;35061;47.664;9.166;2023-01-04T11:58:09;102755.22;;;8.75;87.70
18755;BME280;35061;47.664;9.166;2023-01-04T12:00:48;102757.15;;;8.82;87.25
18755;BME280;35061;47.664;9.166;2023-01-04T12:03:26;102746.06;;;8.84;87.15
18755;BME280;35061;47.664;9.166;2023-01-04T12:05:57;102754.24;;;8.86;85.27
18755;BME280;35061;47.664;9.166;2023-01-04T12:08:32;102753.36;;;8.89;85.50
18755;BME280;35061;47.664;9.166;2023-01-04T12:11:02;102754.11;;;8.93;86.54
18755;BME280;35061;47.664;9.166;2023-01-04T12:13:32;102751.63;;;8.95;86.38
18755;BME280;35061;47.664;9.166;2023-01-04T12:16:11;102750.38;;;8.96;85.01
18755;BME280;35061;47.664;9.166;2023-01-04T12:18:44;102755.68;;;8.98;84.57
18755;BME280;35061;47.664;9.166;2023-01-04T12:21:18;102736.88;;;8.97;83.81
18755;BME280;35061;47.664;9.166;2023-01-04T12:23:46;102734.49;;;8.95;83.94
18755;BME280;35061;47.664;9.166;2023-01-04T12:26:15;102737.70;;;8.97;84.75
18755;BME280;35061;47.664;9.166;2023-01-04T12:29:30;102728.31;;;8.97;84.82
18755;BME280;35061;47.664;9.166;2023-01-04T12:31:36;102722.59;;;8.97;83.81
18755;BME280;35061;47.664;9.166;2023-01-04T12:37:11;102714.84;;;8.97;83.64
18755;BME280;35061;47.664;9.166;2023-01-04T12:39:58;102706.20;;;9.01;84.34
18755;BME280;35061;47.664;9.166;2023-01-04T12:42:26;102697.63;;;9.01;83.09
18755;BME280;35061;47.664;9.166;2023-01-04T12:50:17;102691.03;;;9.04;83.30
18755;BME280;35061;47.664;9.166;2023-01-04T12:52:50;102691.75;;;9.08;83.67
18755;BME280;35061;47.664;9.166;2023-01-04T13:01:28;102675.73;;;9.14;82.63
18755;BME280;35061;47.664;9.166;2023-01-04T13:04:02;102681.88;;;9.13;82.36
18755;BME280;35061;47.664;9.166;2023-01-04T13:06:36;102668.11;;;9.07;81.43
18755;BME280;35061;47.664;9.166;2023-01-04T13:09:17;102666.93;;;9.05;81.46
18755;BME280;35061;47.664;9.166;2023-01-04T13:14:46;102662.81;;;9.06;81.95
18755;BME280;35061;47.664;9.166;2023-01-04T13:17:18;102662.81;;;9.06;81.63
18755;BME280;35061;47.664;9.166;2023-01-04T13:19:47;102667.75;;;9.05;81.63
18755;BME280;35061;47.664;9.166;2023-01-04T13:22:25;102654.30;;;9.02;81.38
18755;BME280;35061;47.664;9.166;2023-01-04T13:24:57;102658.73;;;9.07;81.22
18755;BME280;35061;47.664;9.166;2023-01-04T13:27:26;102643.26;;;9.04;81.85
18755;BME280;35061;47.664;9.166;2023-01-04T13:29:54;102648.59;;;9.02;79.57
18755;BME280;35061;47.664;9.166;2023-01-04T13:40:24;102654.70;;;9.04;80.79
18755;BME280;35061;47.664;9.166;2023-01-04T13:48:50;102637.04;;;9.10;80.53
18755;BME280;35061;47.664;9.166;2023-01-04T13:51:32;102624.35;;;9.11;80.92
18755;BME280;35061;47.664;9.166;2023-01-04T13:54:22;102621.05;;;9.12;80.85
18755;BME280;35061;47.664;9.166;2023-01-04T13:57:07;102618.99;;;9.13;80.32
18755;BME280;35061;47.664;9.166;2023-01-04T13:59:36;102614.52;;;9.12;78.98
18755;BME280;35061;47.664;9.166;2023-01-04T14:02:17;102616.60;;;9.11;80.09
18755;BME280;35061;47.664;9.166;2023-01-04T14:04:48;102608.89;;;9.08;79.30
18755;BME280;35061;47.664;9.166;2023-01-04T14:07:23;102608.10;;;9.07;79.54
18755;BME280;35061;47.664;9.166;2023-01-04T14:09:53;102613.80;;;9.07;79.15
18755;BME280;35061;47.664;9.166;2023-01-04T14:12:23;102608.46;;;9.10;78.93
18755;BME280;35061;47.664;9.166;2023-01-04T14:17:45;102607.19;;;9.11;79.97
18755;BME280;35061;47.664;9.166;2023-01-04T14:31:13;102638.35;;;9.05;78.77
18755;BME280;35061;47.664;9.166;2023-01-04T14:33:47;102633.87;;;9.04;78.74
18755;BME280;35061;47.664;9.166;2023-01-04T14:36:23;102624.06;;;9.05;78.86
18755;BME280;35061;47.664;9.166;2023-01-04T14:41:50;102639.17;;;9.05;78.70
18755;BME280;35061;47.664;9.166;2023-01-04T14:44:23;102636.75;;;9.04;78.58
18755;BME280;35061;47.664;9.166;2023-01-04T14:46:54;102629.09;;;8.97;77.77
18755;BME280;35061;47.664;9.166;2023-01-04T14:49:23;102639.66;;;9.00;78.38
18755;BME280;35061;47.664;9.166;2023-01-04T14:52:09;102630.73;;;8.98;78.87
18755;BME280;35061;47.664;9.166;2023-01-04T14:54:37;102630.30;;;9.00;78.43
18755;BME280;35061;47.664;9.166;2023-01-04T14:57:07;102622.52;;;9.00;79.03
18755;BME280;35061;47.664;9.166;2023-01-04T14:59:36;102618.41;;;9.01;79.09
18755;BME280;35061;47.664;9.166;2023-01-04T15:02:03;102623.27;;;9.04;79.12
18755;BME280;35061;47.664;9.166;2023-01-04T15:04:31;102626.12;;;9.04;78.83
18755;BME280;35061;47.664;9.166;2023-01-04T15:06:59;102626.12;;;9.04;78.71
18755;BME280;35061;47.664;9.166;2023-01-04T15:09:28;102630.60;;;9.05;78.59
18755;BME280;35061;47.664;9.166;2023-01-04T15:11:57;102622.88;;;9.02;77.76
18755;BME280;35061;47.664;9.166;2023-01-04T15:14:25;102624.13;;;9.01;78.02
18755;BME280;35061;47.664;9.166;2023-01-04T15:16:53;102620.46;;;9.01;77.63